Time;durP1;ratioP1;P1;durP2;ratioP2;P2;SDS_P1;SDS_P2;PMS_P1;PMS_P2;Temp;Humidity;BMP_temperature;BMP_pressure;BME280_temperature;BME280_humidity;BME280_pressure;Samples;Min_cycle;Max_cycle;Signal;HPM_P1;HPM_P2
2022/04/03 00:01:39;;;;;;;;;;;;;;;;;;5056302;28;19911;-49
2022/04/03 00:04:04;;;;;;;;;;;;;;;;;;5056292;28;20367;-46
2022/04/03 00:06:30;;;;;;;;;;;;;;;;;;5056402;28;19920;-46
2022/04/03 00:08:56;;;;;;;;;;;;;;;;;;5056683;28;19966;-46
2022/04/03 00:11:21;;;;;;;;;;;;;;;;;;5056420;28;19948;-46
2022/04/03 00:13:46;;;;;;;;;;;;;;;;;;5056350;28;19916;-47
2022/04/03 00:16:11;;;;;;;;;;;;;;;;;;5055988;28;19909;-46
2022/04/03 00:18:37;;;;;;;;;;;;;;;;;;5059154;28;19920;-46
2022/04/03 00:21:03;;;;;;;;;;;;;;;;;;5056333;28;19909;-46
2022/04/03 00:23:28;;;;;;;;;;;;;;;;;;5056076;28;19970;-45
2022/04/03 00:25:53;;;;;;;;;;;;;;;;;;5056097;28;20388;-46
2022/04/03 00:28:18;;;;;;;;;;;;;;;;;;5055757;28;20268;-46
2022/04/03 00:30:43;;;;;;;;;;;;;;;;;;5055931;28;19978;-46
2022/04/03 00:33:09;;;;;;;;;;;;;;;;;;5056086;28;20344;-46
2022/04/03 00:35:34;;;;;;;;;;;;;;;;;;5055910;28;19944;-46
2022/04/03 00:37:59;;;;;;;;;;;;;;;;;;5054625;28;20367;-45
2022/04/03 00:40:26;;;;;;;;;;;;;;;;;;5055765;28;19908;-46
2022/04/03 00:42:51;;;;;;;;;;;;;;;;;;5055493;28;20379;-46
2022/04/03 00:45:16;;;;;;;;;;;;;;;;;;5055574;28;20062;-46
2022/04/03 00:47:42;;;;;;;;;;;;;;;;;;5055419;28;19909;-46
2022/04/03 00:50:07;;;;;;;;;;;;;;;;;;5055929;28;19913;-46
2022/04/03 00:52:32;;;;;;;;;;;;;;;;;;5055822;28;20318;-47
2022/04/03 00:54:57;;;;;;;;;;;;;;;;;;5055679;28;19931;-46
2022/04/03 00:57:22;;;;;;;;;;;;;;;;;;5055745;28;19939;-47
2022/04/03 00:59:47;;;;;;;;;;;;;;;;;;5055356;28;19920;-47
2022/04/03 01:02:12;;;;;;;;;;;;;;;;;;5055345;28;20308;-46
2022/04/03 01:04:37;;;;;;;;;;;;;;;;;;5055220;28;19916;-46
2022/04/03 01:07:02;;;;;;;;;;;;;;;;;;5055223;28;19915;-47
2022/04/03 01:09:28;;;;;;;;;;;;;;;;;;5054984;28;19912;-47
2022/04/03 01:11:53;;;;;;;;;;;;;;;;;;5054866;28;20434;-46
2022/04/03 01:14:18;;;;;;;;;;;;;;;;;;5055122;28;19916;-46
2022/04/03 01:16:43;;;;;;;;;;;;;;;;;;5055015;28;19916;-47
2022/04/03 01:19:08;;;;;;;;;;;;;;;;;;5055107;28;19915;-47
2022/04/03 01:21:33;;;;;;;;;;;;;;;;;;5055030;28;19909;-47
2022/04/03 01:23:58;;;;;;;;;;;;;;;;;;5054958;28;19983;-47
2022/04/03 01:26:24;;;;;;;;;;;;;;;;;;5054833;28;20386;-47
2022/04/03 01:28:51;;;;;;;;;;;;;;;;;;5054546;28;19921;-47
2022/04/03 01:31:16;;;;;;;;;;;;;;;;;;5054736;28;20003;-48
2022/04/03 01:33:41;;;;;;;;;;;;;;;;;;5054748;28;20383;-47
2022/04/03 01:36:06;;;;;;;;;;;;;;;;;;5054719;28;19916;-46
2022/04/03 01:38:31;;;;;;;;;;;;;;;;;;5054495;28;19920;-48
2022/04/03 01:40:56;;;;;;;;;;;;;;;;;;5054625;28;19962;-47
2022/04/03 01:43:22;;;;;;;;;;;;;;;;;;5054536;28;20259;-47
2022/04/03 01:45:47;;;;;;;;;;;;;;;;;;5054565;28;19912;-47
2022/04/03 01:48:12;;;;;;;;;;;;;;;;;;5054587;28;19940;-46
2022/04/03 01:50:37;;;;;;;;;;;;;;;;;;5054110;28;19917;-48
2022/04/03 01:53:02;;;;;;;;;;;;;;;;;;5054574;28;20260;-46
2022/04/03 01:55:27;;;;;;;;;;;;;;;;;;5054323;28;19909;-46
2022/04/03 01:57:53;;;;;;;;;;;;;;;;;;5053987;28;20019;-46
2022/04/03 02:00:18;;;;;;;;;;;;;;;;;;5054138;28;20292;-46
2022/04/03 02:02:43;;;;;;;;;;;;;;;;;;5054367;28;19909;-49
2022/04/03 02:05:08;;;;;;;;;;;;;;;;;;5054082;28;20367;-46
2022/04/03 02:07:33;;;;;;;;;;;;;;;;;;5052833;28;19909;-46
2022/04/03 02:09:58;;;;;;;;;;;;;;;;;;5054305;28;20335;-46
2022/04/03 02:12:24;;;;;;;;;;;;;;;;;;5054336;28;20371;-48
2022/04/03 02:14:50;;;;;;;;;;;;;;;;;;5054164;28;19913;-46
2022/04/03 02:17:15;;;;;;;;;;;;;;;;;;5053919;28;19908;-47
2022/04/03 02:19:40;;;;;;;;;;;;;;;;;;5053983;28;19909;-48
2022/04/03 02:22:05;;;;;;;;;;;;;;;;;;5053917;28;19909;-47
2022/04/03 02:24:30;;;;;;;;;;;;;;;;;;5053887;28;19913;-47
2022/04/03 02:26:55;;;;;;;;;;;;;;;;;;5053875;28;19908;-46
2022/04/03 02:29:20;;;;;;;;;;;;;;;;;;5053811;28;20426;-46
2022/04/03 02:31:46;;;;;;;;;;;;;;;;;;5054010;28;19916;-46
2022/04/03 02:34:11;;;;;;;;;;;;;;;;;;5054437;28;19913;-46
2022/04/03 02:36:40;;;;;;;;;;;;;;;;;;5053904;28;19916;-48
2022/04/03 02:39:06;;;;;;;;;;;;;;;;;;5053855;28;19936;-47
2022/04/03 02:41:31;;;;;;;;;;;;;;;;;;5053866;28;19935;-47
2022/04/03 02:43:57;;;;;;;;;;;;;;;;;;5053866;28;19909;-47
2022/04/03 02:46:22;;;;;;;;;;;;;;;;;;5053887;28;20002;-47
2022/04/03 02:48:47;;;;;;;;;;;;;;;;;;5053399;28;19917;-47
2022/04/03 02:51:12;;;;;;;;;;;;;;;;;;5053752;28;19909;-47
2022/04/03 02:53:38;;;;;;;;;;;;;;;;;;5053469;28;19913;-46
2022/04/03 02:56:03;;;;;;;;;;;;;;;;;;5053480;28;20271;-46
2022/04/03 02:58:28;;;;;;;;;;;;;;;;;;5053595;28;19921;-47
2022/04/03 03:00:53;;;;;;;;;;;;;;;;;;5054161;28;19909;-47
2022/04/03 03:03:18;;;;;;;;;;;;;;;;;;5057291;28;19909;-46
2022/04/03 03:05:45;;;;;;;;;;;;;;;;;;5057521;28;20340;-47
2022/04/03 03:08:10;;;;;;;;;;;;;;;;;;5057181;28;20307;-49
2022/04/03 03:10:35;;;;;;;;;;;;;;;;;;5057121;28;19916;-47
2022/04/03 03:13:00;;;;;;;;;;;;;;;;;;5057198;28;19963;-46
2022/04/03 03:15:25;;;;;;;;;;;;;;;;;;5057115;28;19916;-46
2022/04/03 03:17:51;;;;;;;;;;;;;;;;;;5057083;28;20299;-47
2022/04/03 03:20:16;;;;;;;;;;;;;;;;;;5057087;28;20268;-46
2022/04/03 03:22:41;;;;;;;;;;;;;;;;;;5057028;28;19909;-47
2022/04/03 03:25:07;;;;;;;;;;;;;;;;;;5057059;28;19940;-46
2022/04/03 03:27:32;;;;;;;;;;;;;;;;;;5057029;28;20386;-47
2022/04/03 03:29:57;;;;;;;;;;;;;;;;;;5056942;28;19913;-47
2022/04/03 03:32:24;;;;;;;;;;;;;;;;;;5056820;28;19970;-47
2022/04/03 03:34:49;;;;;;;;;;;;;;;;;;5056901;28;19909;-49
2022/04/03 03:37:14;;;;;;;;;;;;;;;;;;5056737;28;19909;-46
2022/04/03 03:39:39;;;;;;;;;;;;;;;;;;5055762;28;20352;-47
2022/04/03 03:42:04;;;;;;;;;;;;;;;;;;5056905;28;19909;-47
2022/04/03 03:44:29;;;;;;;;;;;;;;;;;;5055553;28;20371;-47
2022/04/03 03:46:54;;;;;;;;;;;;;;;;;;5056694;28;20330;-47
2022/04/03 03:49:19;;;;;;;;;;;;;;;;;;5056833;28;19991;-47
2022/04/03 03:51:45;;;;;;;;;;;;;;;;;;5056707;28;19916;-47
2022/04/03 03:54:10;;;;;;;;;;;;;;;;;;5056775;28;19968;-47
2022/04/03 03:56:35;;;;;;;;;;;;;;;;;;5056589;28;19913;-47
2022/04/03 03:59:00;;;;;;;;;;;;;;;;;;5056368;28;20397;-48
2022/04/03 04:01:25;;;;;;;;;;;;;;;;;;5056640;28;19909;-47
2022/04/03 04:03:50;;;;;;;;;;;;;;;;;;5056517;28;19913;-47
2022/04/03 04:06:15;;;;;;;;;;;;;;;;;;5056454;28;19936;-48
2022/04/03 04:08:41;;;;;;;;;;;;;;;;;;5056306;28;19920;-47
2022/04/03 04:11:06;;;;;;;;;;;;;;;;;;5056399;28;19948;-46
2022/04/03 04:13:31;;;;;;;;;;;;;;;;;;5055933;28;19928;-46
2022/04/03 04:15:56;;;;;;;;;;;;;;;;;;5056223;28;19909;-47
2022/04/03 04:18:21;;;;;;;;;;;;;;;;;;5056145;28;19967;-46
2022/04/03 04:20:47;;;;;;;;;;;;;;;;;;5056104;28;19915;-46
2022/04/03 04:23:13;;;;;;;;;;;;;;;;;;5056111;28;19943;-48
2022/04/03 04:25:38;;;;;;;;;;;;;;;;;;5054782;28;20011;-47
2022/04/03 04:28:03;;;;;;;;;;;;;;;;;;5055928;28;20011;-47
2022/04/03 04:30:28;;;;;;;;;;;;;;;;;;5054602;28;19967;-47
2022/04/03 04:32:53;;;;;;;;;;;;;;;;;;5056008;28;19954;-47
2022/04/03 04:35:19;;;;;;;;;;;;;;;;;;5055867;28;19913;-47
2022/04/03 04:37:44;;;;;;;;;;;;;;;;;;5055991;28;19989;-47
2022/04/03 04:40:09;;;;;;;;;;;;;;;;;;5055781;28;19935;-47
2022/04/03 04:42:34;;;;;;;;;;;;;;;;;;5055685;28;19978;-48
2022/04/03 04:44:59;;;;;;;;;;;;;;;;;;5055989;28;19920;-46
2022/04/03 04:47:25;;;;;;;;;;;;;;;;;;5055466;28;19915;-47
2022/04/03 04:49:50;;;;;;;;;;;;;;;;;;5055703;28;19923;-49
2022/04/03 04:52:15;;;;;;;;;;;;;;;;;;5055547;28;19908;-47
2022/04/03 04:54:40;;;;;;;;;;;;;;;;;;5055494;28;19908;-47
2022/04/03 04:57:05;;;;;;;;;;;;;;;;;;5055718;28;20000;-46
2022/04/03 04:59:30;;;;;;;;;;;;;;;;;;5055326;28;19920;-47
2022/04/03 05:01:58;;;;;;;;;;;;;;;;;;5055248;28;19909;-47
2022/04/03 05:04:23;;;;;;;;;;;;;;;;;;5055353;28;19962;-46
2022/04/03 05:06:48;;;;;;;;;;;;;;;;;;5056206;28;20000;-47
2022/04/03 05:09:14;;;;;;;;;;;;;;;;;;5055262;28;20467;-47
2022/04/03 05:11:39;;;;;;;;;;;;;;;;;;5055398;28;19909;-46
2022/04/03 05:14:04;;;;;;;;;;;;;;;;;;5055044;28;20023;-46
2022/04/03 05:16:29;;;;;;;;;;;;;;;;;;5055066;28;19909;-47
2022/04/03 05:18:54;;;;;;;;;;;;;;;;;;5054975;28;20344;-50
2022/04/03 05:21:20;;;;;;;;;;;;;;;;;;5054900;28;19909;-47
2022/04/03 05:23:45;;;;;;;;;;;;;;;;;;5054445;28;19908;-47
2022/04/03 05:26:10;;;;;;;;;;;;;;;;;;5054865;28;20051;-47
2022/04/03 05:28:35;;;;;;;;;;;;;;;;;;5054817;28;19916;-47
2022/04/03 05:31:00;;;;;;;;;;;;;;;;;;5054828;28;19909;-48
2022/04/03 05:33:25;;;;;;;;;;;;;;;;;;5054692;28;20000;-47
2022/04/03 05:35:50;;;;;;;;;;;;;;;;;;5054684;28;19917;-47
2022/04/03 05:38:16;;;;;;;;;;;;;;;;;;5054768;28;19963;-47
2022/04/03 05:40:41;;;;;;;;;;;;;;;;;;5054728;28;19935;-47
2022/04/03 05:43:06;;;;;;;;;;;;;;;;;;5054697;28;19988;-47
2022/04/03 05:45:31;;;;;;;;;;;;;;;;;;5054413;28;19920;-47
2022/04/03 05:47:56;;;;;;;;;;;;;;;;;;5054709;28;19908;-47
2022/04/03 05:50:22;;;;;;;;;;;;;;;;;;5054711;28;19928;-46
2022/04/03 05:52:47;;;;;;;;;;;;;;;;;;5054531;28;20306;-47
2022/04/03 05:55:12;;;;;;;;;;;;;;;;;;5054458;28;20352;-47
2022/04/03 05:57:37;;;;;;;;;;;;;;;;;;5054261;28;20294;-47
2022/04/03 06:00:02;;;;;;;;;;;;;;;;;;5054850;28;20011;-49
2022/04/03 06:02:28;;;;;;;;;;;;;;;;;;5054761;28;19913;-47
2022/04/03 06:04:53;;;;;;;;;;;;;;;;;;5054476;28;19915;-47
2022/04/03 06:07:18;;;;;;;;;;;;;;;;;;5054382;28;19915;-47
2022/04/03 06:09:43;;;;;;;;;;;;;;;;;;5054189;28;20344;-47
2022/04/03 06:12:08;;;;;;;;;;;;;;;;;;5054280;28;19959;-47
2022/04/03 06:14:34;;;;;;;;;;;;;;;;;;5054268;28;20282;-47
2022/04/03 06:16:59;;;;;;;;;;;;;;;;;;5054200;28;20016;-47
2022/04/03 06:19:24;;;;;;;;;;;;;;;;;;5054063;28;20007;-47
2022/04/03 06:21:49;;;;;;;;;;;;;;;;;;5054078;28;19935;-47
2022/04/03 06:24:14;;;;;;;;;;;;;;;;;;5053862;28;20389;-47
2022/04/03 06:26:39;;;;;;;;;;;;;;;;;;5054130;28;20410;-50
2022/04/03 06:29:05;;;;;;;;;;;;;;;;;;5053866;28;19913;-48
2022/04/03 06:31:30;;;;;;;;;;;;;;;;;;5054099;28;20299;-48
2022/04/03 06:33:55;;;;;;;;;;;;;;;;;;5053880;28;19909;-48
2022/04/03 06:36:20;;;;;;;;;;;;;;;;;;5055485;28;19916;-48
2022/04/03 06:38:46;;;;;;;;;;;;;;;;;;5058027;28;20276;-48
2022/04/03 06:41:11;;;;;;;;;;;;;;;;;;5058225;28;19935;-48
2022/04/03 06:43:36;;;;;;;;;;;;;;;;;;5058175;28;20403;-47
2022/04/03 06:46:01;;;;;;;;;;;;;;;;;;5058155;28;19916;-46
2022/04/03 06:48:26;;;;;;;;;;;;;;;;;;5058016;28;19916;-46
2022/04/03 06:50:51;;;;;;;;;;;;;;;;;;5057608;28;19908;-46
2022/04/03 06:53:16;;;;;;;;;;;;;;;;;;5057805;28;19916;-46
2022/04/03 06:55:41;;;;;;;;;;;;;;;;;;5057860;28;19920;-47
2022/04/03 06:58:09;;;;;;;;;;;;;;;;;;5057645;28;19921;-47
2022/04/03 07:00:34;;;;;;;;;;;;;;;;;;5057521;28;19909;-47
2022/04/03 07:02:59;;;;;;;;;;;;;;;;;;5057572;28;19931;-48
2022/04/03 07:05:24;;;;;;;;;;;;;;;;;;5057487;28;19912;-47
2022/04/03 07:07:50;;;;;;;;;;;;;;;;;;5057395;28;19967;-48
2022/04/03 07:10:15;;;;;;;;;;;;;;;;;;5057072;28;20272;-47
2022/04/03 07:12:40;;;;;;;;;;;;;;;;;;5057325;28;19908;-46
2022/04/03 07:15:05;;;;;;;;;;;;;;;;;;5057185;28;19909;-47
2022/04/03 07:17:30;;;;;;;;;;;;;;;;;;5057173;28;19959;-47
2022/04/03 07:19:55;;;;;;;;;;;;;;;;;;5057251;28;19951;-47
2022/04/03 07:22:20;;;;;;;;;;;;;;;;;;5056966;28;20360;-47
2022/04/03 07:24:45;;;;;;;;;;;;;;;;;;5057086;28;19908;-47
2022/04/03 07:27:11;;;;;;;;;;;;;;;;;;5057013;28;19913;-50
2022/04/03 07:29:36;;;;;;;;;;;;;;;;;;5056896;28;19912;-47
2022/04/03 07:32:01;;;;;;;;;;;;;;;;;;5056853;28;20138;-47
2022/04/03 07:34:26;;;;;;;;;;;;;;;;;;5056884;28;19959;-47
2022/04/03 07:36:51;;;;;;;;;;;;;;;;;;5056839;28;20256;-47
2022/04/03 07:39:16;;;;;;;;;;;;;;;;;;5056769;28;19912;-47
2022/04/03 07:41:42;;;;;;;;;;;;;;;;;;5056958;28;19913;-47
2022/04/03 07:44:08;;;;;;;;;;;;;;;;;;5057022;28;20252;-47
2022/04/03 07:46:33;;;;;;;;;;;;;;;;;;5056335;28;19932;-47
2022/04/03 07:48:58;;;;;;;;;;;;;;;;;;5056576;28;19913;-48
2022/04/03 07:51:23;;;;;;;;;;;;;;;;;;5056553;28;20336;-47
2022/04/03 07:53:48;;;;;;;;;;;;;;;;;;5056572;28;19952;-48
2022/04/03 07:56:14;;;;;;;;;;;;;;;;;;5056572;28;19931;-47
2022/04/03 07:58:39;;;;;;;;;;;;;;;;;;5077062;22;19925;-48
2022/04/03 08:01:04;;;;;;;;;;;;;;;;;;5076502;28;19952;-49
2022/04/03 08:03:29;;;;;;;;;;;;;;;;;;5076397;28;20267;-48
2022/04/03 08:05:54;;;;;;;;;;;;;;;;;;5076521;28;19992;-48
2022/04/03 08:08:19;;;;;;;;;;;;;;;;;;5076326;28;19995;-48
2022/04/03 08:10:45;;;;;;;;;;;;;;;;;;5076063;28;19960;-50
2022/04/03 08:13:10;;;;;;;;;;;;;;;;;;5076334;28;19913;-48
2022/04/03 08:15:35;;;;;;;;;;;;;;;;;;5076303;28;19908;-50
2022/04/03 08:18:00;;;;;;;;;;;;;;;;;;5076239;28;19916;-48
2022/04/03 08:20:25;;;;;;;;;;;;;;;;;;5076382;28;19915;-50
2022/04/03 08:22:50;;;;;;;;;;;;;;;;;;5076338;28;19919;-49
2022/04/03 08:25:15;;;;;;;;;;;;;;;;;;5076435;28;20360;-48
2022/04/03 08:27:42;;;;;;;;;;;;;;;;;;5075232;28;19936;-48
2022/04/03 08:30:07;;;;;;;;;;;;;;;;;;5076146;28;19962;-48
2022/04/03 08:32:32;;;;;;;;;;;;;;;;;;5075954;28;19913;-48
2022/04/03 08:34:58;;;;;;;;;;;;;;;;;;5076224;28;20296;-48
2022/04/03 08:37:24;;;;;;;;;;;;;;;;;;5074677;28;20267;-47
2022/04/03 08:39:49;;;;;;;;;;;;;;;;;;5075983;28;19962;-47
2022/04/03 08:42:14;;;;;;;;;;;;;;;;;;5075853;28;19909;-48
2022/04/03 08:44:39;;;;;;;;;;;;;;;;;;5075675;28;20383;-47
2022/04/03 08:47:06;;;;;;;;;;;;;;;;;;5075652;28;20002;-50
2022/04/03 08:49:32;;;;;;;;;;;;;;;;;;5075610;28;19920;-47
2022/04/03 08:51:57;;;;;;;;;;;;;;;;;;5075507;28;20287;-47
2022/04/03 08:54:22;;;;;;;;;;;;;;;;;;5075605;28;20266;-48
2022/04/03 08:56:47;;;;;;;;;;;;;;;;;;5075613;28;19946;-47
2022/04/03 08:59:12;;;;;;;;;;;;;;;;;;5074401;28;19931;-48
2022/04/03 09:01:37;;;;;;;;;;;;;;;;;;5075604;28;19908;-49
2022/04/03 09:04:02;;;;;;;;;;;;;;;;;;5075526;28;19978;-48
2022/04/03 09:06:27;;;;;;;;;;;;;;;;;;5075620;28;19913;-49
2022/04/03 09:08:53;;;;;;;;;;;;;;;;;;5075288;28;19927;-48
2022/04/03 09:11:18;;;;;;;;;;;;;;;;;;5075311;28;20336;-50
2022/04/03 09:13:44;;;;;;;;;;;;;;;;;;5075168;28;19908;-48
2022/04/03 09:16:09;;;;;;;;;;;;;;;;;;5075195;28;19908;-48
2022/04/03 09:18:34;;;;;;;;;;;;;;;;;;5075396;28;19909;-48
2022/04/03 09:20:59;;;;;;;;;;;;;;;;;;5075099;28;19913;-47
2022/04/03 09:23:26;;;;;;;;;;;;;;;;;;5075220;28;19962;-48
2022/04/03 09:25:51;;;;;;;;;;;;;;;;;;5075004;28;19909;-50
2022/04/03 09:28:17;;;;;;;;;;;;;;;;;;5075100;28;19991;-48
2022/04/03 09:30:43;;;;;;;;;;;;;;;;;;5074972;28;20030;-48
2022/04/03 09:33:08;;;;;;;;;;;;;;;;;;5075183;28;19954;-48
2022/04/03 09:35:33;;;;;;;;;;;;;;;;;;5075127;28;19908;-48
2022/04/03 09:37:58;;;;;;;;;;;;;;;;;;5074731;28;19955;-48
2022/04/03 09:40:23;;;;;;;;;;;;;;;;;;5075042;28;19916;-47
2022/04/03 09:42:48;;;;;;;;;;;;;;;;;;5074817;28;20003;-48
2022/04/03 09:45:14;;;;;;;;;;;;;;;;;;5074787;28;19908;-49
2022/04/03 09:47:39;;;;;;;;;;;;;;;;;;5074978;28;20366;-50
2022/04/03 09:50:04;;;;;;;;;;;;;;;;;;5074939;28;19936;-49
2022/04/03 09:52:29;;;;;;;;;;;;;;;;;;5074940;28;19919;-48
2022/04/03 09:54:54;;;;;;;;;;;;;;;;;;5075042;28;19908;-47
2022/04/03 09:57:19;;;;;;;;;;;;;;;;;;5074622;28;19909;-48
2022/04/03 09:59:44;;;;;;;;;;;;;;;;;;5074810;28;19913;-48
2022/04/03 10:02:10;;;;;;;;;;;;;;;;;;5074458;28;19981;-50
2022/04/03 10:04:35;;;;;;;;;;;;;;;;;;5074386;28;19959;-48
2022/04/03 10:07:00;;;;;;;;;;;;;;;;;;5074454;28;19958;-48
2022/04/03 10:09:26;;;;;;;;;;;;;;;;;;5072870;28;19917;-50
2022/04/03 10:11:51;;;;;;;;;;;;;;;;;;5074173;28;19908;-49
2022/04/03 10:14:16;;;;;;;;;;;;;;;;;;5074253;28;19916;-49
2022/04/03 10:16:42;;;;;;;;;;;;;;;;;;5074204;28;19908;-47
2022/04/03 10:19:07;;;;;;;;;;;;;;;;;;5074349;28;20007;-50
2022/04/03 10:21:32;;;;;;;;;;;;;;;;;;5074409;28;19909;-48
2022/04/03 10:23:57;;;;;;;;;;;;;;;;;;5074298;28;19909;-49
2022/04/03 10:26:22;;;;;;;;;;;;;;;;;;5074393;28;19908;-48
2022/04/03 10:28:47;;;;;;;;;;;;;;;;;;5074431;28;19904;-48
2022/04/03 10:31:12;;;;;;;;;;;;;;;;;;5074086;28;19920;-47
2022/04/03 10:33:37;;;;;;;;;;;;;;;;;;5074333;28;19908;-50
2022/04/03 10:36:03;;;;;;;;;;;;;;;;;;5074178;28;19908;-48
2022/04/03 10:38:28;;;;;;;;;;;;;;;;;;5074145;28;19909;-49
2022/04/03 10:40:53;;;;;;;;;;;;;;;;;;5074034;28;20367;-48
2022/04/03 10:43:18;;;;;;;;;;;;;;;;;;5074133;28;19962;-48
2022/04/03 10:45:47;;;;;;;;;;;;;;;;;;5074092;28;19963;-48
2022/04/03 10:48:12;;;;;;;;;;;;;;;;;;5073937;28;19909;-50
2022/04/03 10:50:37;;;;;;;;;;;;;;;;;;5073902;28;20282;-48
2022/04/03 10:53:02;;;;;;;;;;;;;;;;;;5074166;28;19913;-48
2022/04/03 10:55:27;;;;;;;;;;;;;;;;;;5073924;28;20377;-48
2022/04/03 10:57:54;;;;;;;;;;;;;;;;;;5073691;28;19931;-49
2022/04/03 11:00:19;;;;;;;;;;;;;;;;;;5074084;28;19963;-51
2022/04/03 11:02:44;;;;;;;;;;;;;;;;;;5073865;28;19909;-49
2022/04/03 11:05:09;;;;;;;;;;;;;;;;;;5074102;28;19913;-51
2022/04/03 11:07:35;;;;;;;;;;;;;;;;;;5073801;28;19909;-50
2022/04/03 11:10:00;;;;;;;;;;;;;;;;;;5073776;28;19912;-47
2022/04/03 11:12:25;;;;;;;;;;;;;;;;;;5073658;28;19915;-48
2022/04/03 11:14:55;;;;;;;;;;;;;;;;;;5073638;28;19916;-48
2022/04/03 11:17:20;;;;;;;;;;;;;;;;;;5073671;28;20287;-48
2022/04/03 11:19:45;;;;;;;;;;;;;;;;;;5073691;28;19917;-51
2022/04/03 11:22:10;;;;;;;;;;;;;;;;;;5074907;28;19908;-49
2022/04/03 11:24:36;;;;;;;;;;;;;;;;;;5077246;28;20287;-49
2022/04/03 11:27:01;;;;;;;;;;;;;;;;;;5077285;28;20000;-49
2022/04/03 11:29:26;;;;;;;;;;;;;;;;;;5077812;28;19913;-48
2022/04/03 11:31:51;;;;;;;;;;;;;;;;;;5076096;28;19913;-49
2022/04/03 11:34:16;;;;;;;;;;;;;;;;;;5077349;28;19908;-48
2022/04/03 11:36:41;;;;;;;;;;;;;;;;;;5077260;28;20359;-48
2022/04/03 11:39:06;;;;;;;;;;;;;;;;;;5077140;28;19908;-49
2022/04/03 11:41:34;;;;;;;;;;;;;;;;;;5077186;28;19951;-49
2022/04/03 11:44:00;;;;;;;;;;;;;;;;;;5077052;28;19908;-48
2022/04/03 11:46:25;;;;;;;;;;;;;;;;;;5077189;28;19916;-49
2022/04/03 11:48:50;;;;;;;;;;;;;;;;;;5077034;28;19916;-49
2022/04/03 11:51:16;;;;;;;;;;;;;;;;;;5076909;28;19912;-49
2022/04/03 11:53:41;;;;;;;;;;;;;;;;;;5077045;28;19908;-49
2022/04/03 11:56:06;;;;;;;;;;;;;;;;;;5076815;28;19963;-49
2022/04/03 11:58:31;;;;;;;;;;;;;;;;;;5076441;28;19928;-49
2022/04/03 12:00:57;;;;;;;;;;;;;;;;;;5077137;28;19908;-49
2022/04/03 12:03:22;;;;;;;;;;;;;;;;;;5076868;28;19908;-49
2022/04/03 12:05:47;;;;;;;;;;;;;;;;;;5077288;28;20263;-49
2022/04/03 12:08:12;;;;;;;;;;;;;;;;;;5076998;28;19908;-49
2022/04/03 12:10:37;;;;;;;;;;;;;;;;;;5076565;28;19920;-49
2022/04/03 12:13:02;;;;;;;;;;;;;;;;;;5077008;28;19915;-50
2022/04/03 12:15:27;;;;;;;;;;;;;;;;;;5076800;28;19908;-49
2022/04/03 12:17:52;;;;;;;;;;;;;;;;;;5076474;28;20264;-49
2022/04/03 12:20:18;;;;;;;;;;;;;;;;;;5076726;28;20321;-48
2022/04/03 12:22:43;;;;;;;;;;;;;;;;;;5076616;28;19983;-48
2022/04/03 12:25:08;;;;;;;;;;;;;;;;;;5076293;28;19931;-50
2022/04/03 12:27:34;;;;;;;;;;;;;;;;;;5076098;28;19915;-47
2022/04/03 12:29:59;;;;;;;;;;;;;;;;;;5076455;28;19917;-49
2022/04/03 12:32:24;;;;;;;;;;;;;;;;;;5076176;28;19916;-48
2022/04/03 12:34:50;;;;;;;;;;;;;;;;;;5076100;28;20256;-48
2022/04/03 12:37:15;;;;;;;;;;;;;;;;;;5075843;28;19991;-48
2022/04/03 12:39:40;;;;;;;;;;;;;;;;;;5076118;28;19909;-47
2022/04/03 12:42:05;;;;;;;;;;;;;;;;;;5075864;28;20414;-51
2022/04/03 12:44:30;;;;;;;;;;;;;;;;;;5075775;28;20387;-49
2022/04/03 12:46:55;;;;;;;;;;;;;;;;;;5074300;28;19966;-48
2022/04/03 12:49:21;;;;;;;;;;;;;;;;;;5075976;28;20030;-51
2022/04/03 12:51:46;;;;;;;;;;;;;;;;;;5076001;28;19915;-48
2022/04/03 12:54:11;;;;;;;;;;;;;;;;;;5075625;28;19916;-48
2022/04/03 12:59:36;;;;;;;;;;;;;;;;;;5053480;28;20363;-48
2022/04/03 13:02:01;;;;;;;;;;;;;;;;;;5053265;28;19916;-48
2022/04/03 13:04:26;;;;;;;;;;;;;;;;;;5053718;28;20376;-48
2022/04/03 13:06:52;;;;;;;;;;;;;;;;;;5053428;28;19909;-49
2022/04/03 13:09:18;;;;;;;;;;;;;;;;;;5053547;28;19919;-48
2022/04/03 13:11:47;;;;;;;;;;;;;;;;;;5053590;28;19923;-47
2022/04/03 13:14:12;;;;;;;;;;;;;;;;;;5053164;28;19920;-48
2022/04/03 13:16:37;;;;;;;;;;;;;;;;;;5053120;28;19909;-48
2022/04/03 13:19:02;;;;;;;;;;;;;;;;;;5053167;28;20003;-48
2022/04/03 13:21:27;;;;;;;;;;;;;;;;;;5053629;28;19908;-48
2022/04/03 13:23:53;;;;;;;;;;;;;;;;;;5055330;28;19905;-49
2022/04/03 13:26:21;;;;;;;;;;;;;;;;;;5055084;28;19909;-52
2022/04/03 13:28:46;;;;;;;;;;;;;;;;;;5055047;28;20382;-51
2022/04/03 13:31:11;;;;;;;;;;;;;;;;;;5055286;28;19909;-48
2022/04/03 13:33:38;;;;;;;;;;;;;;;;;;5055279;28;20371;-48
2022/04/03 13:36:03;;;;;;;;;;;;;;;;;;5055091;28;20324;-48
2022/04/03 13:38:29;;;;;;;;;;;;;;;;;;5053818;28;19908;-48
2022/04/03 13:40:54;;;;;;;;;;;;;;;;;;5054781;28;19905;-48
2022/04/03 13:43:19;;;;;;;;;;;;;;;;;;5054859;28;19908;-48
2022/04/03 13:45:57;;;;;;;;;;;;;;;;;;5054297;28;19909;-49
2022/04/03 13:48:23;;;;;;;;;;;;;;;;;;5054729;28;20312;-48
2022/04/03 13:50:48;;;;;;;;;;;;;;;;;;5057471;28;19999;-49
2022/04/03 13:53:14;;;;;;;;;;;;;;;;;;5056391;28;19955;-49
2022/04/03 13:55:39;;;;;;;;;;;;;;;;;;5064137;28;19919;-51
2022/04/03 13:58:04;;;;;;;;;;;;;;;;;;5074923;28;19995;-49
2022/04/03 14:00:29;;;;;;;;;;;;;;;;;;5074813;28;20375;-50
2022/04/03 14:02:55;;;;;;;;;;;;;;;;;;5074693;28;19904;-49
2022/04/03 14:05:20;;;;;;;;;;;;;;;;;;5074860;28;19909;-49
2022/04/03 14:07:45;;;;;;;;;;;;;;;;;;5074990;28;19915;-48
2022/04/03 14:10:10;;;;;;;;;;;;;;;;;;5073349;28;19928;-48
2022/04/03 14:12:36;;;;;;;;;;;;;;;;;;5087249;28;20256;-48
2022/04/03 14:15:01;;;;;;;;;;;;;;;;;;5094570;28;19908;-51
2022/04/03 14:17:26;;;;;;;;;;;;;;;;;;5094953;28;19908;-49
2022/04/03 14:19:51;;;;;;;;;;;;;;;;;;5094425;28;19908;-49
2022/04/03 14:22:16;;;;;;;;;;;;;;;;;;5094351;28;20338;-47
2022/04/03 14:24:42;;;;;;;;;;;;;;;;;;5094601;28;19967;-49
2022/04/03 14:27:07;;;;;;;;;;;;;;;;;;5094578;28;19908;-50
2022/04/03 14:29:32;;;;;;;;;;;;;;;;;;5094458;28;20061;-48
2022/04/03 14:31:57;;;;;;;;;;;;;;;;;;5094329;28;19991;-48
2022/04/03 14:34:22;;;;;;;;;;;;;;;;;;5094495;28;19912;-49
2022/04/03 14:36:47;;;;;;;;;;;;;;;;;;5094461;28;19931;-50
2022/04/03 14:39:12;;;;;;;;;;;;;;;;;;5094366;28;19915;-49
2022/04/03 14:41:40;;;;;;;;;;;;;;;;;;5094504;28;20066;-48
2022/04/03 14:44:05;;;;;;;;;;;;;;;;;;5085921;28;19913;-49
2022/04/03 14:46:30;;;;;;;;;;;;;;;;;;5074227;28;19909;-49
2022/04/03 14:48:55;;;;;;;;;;;;;;;;;;5073745;28;19931;-48
2022/04/03 14:51:21;;;;;;;;;;;;;;;;;;5073957;28;20268;-49
2022/04/03 14:53:46;;;;;;;;;;;;;;;;;;5073871;28;19908;-51
2022/04/03 14:56:12;;;;;;;;;;;;;;;;;;5073860;28;20367;-49
2022/04/03 14:58:37;;;;;;;;;;;;;;;;;;5077241;28;19927;-49
2022/04/03 15:01:02;;;;;;;;;;;;;;;;;;5077945;28;20445;-50
2022/04/03 15:03:27;;;;;;;;;;;;;;;;;;5077875;28;19962;-49
2022/04/03 15:05:52;;;;;;;;;;;;;;;;;;5077699;28;19909;-50
2022/04/03 15:08:19;;;;;;;;;;;;;;;;;;5077804;28;19916;-47
2022/04/03 15:10:44;;;;;;;;;;;;;;;;;;5077741;28;19963;-51
2022/04/03 15:13:12;;;;;;;;;;;;;;;;;;5077642;28;19908;-48
2022/04/03 15:15:38;;;;;;;;;;;;;;;;;;5077546;28;19908;-49
2022/04/03 15:18:03;;;;;;;;;;;;;;;;;;5076473;28;19913;-49
2022/04/03 15:20:28;;;;;;;;;;;;;;;;;;5077537;28;19915;-49
2022/04/03 15:22:54;;;;;;;;;;;;;;;;;;5077360;28;19909;-49
2022/04/03 15:25:19;;;;;;;;;;;;;;;;;;5076852;28;19909;-50
2022/04/03 15:27:46;;;;;;;;;;;;;;;;;;5075788;28;19908;-48
2022/04/03 15:30:11;;;;;;;;;;;;;;;;;;5077235;28;19913;-50
2022/04/03 15:32:36;;;;;;;;;;;;;;;;;;5077101;28;19931;-50
2022/04/03 15:35:04;;;;;;;;;;;;;;;;;;5077220;28;19989;-52
2022/04/03 15:37:32;;;;;;;;;;;;;;;;;;5076862;28;19912;-51
2022/04/03 15:39:58;;;;;;;;;;;;;;;;;;5077024;28;19995;-50
2022/04/03 15:42:23;;;;;;;;;;;;;;;;;;5076950;28;19939;-52
2022/04/03 15:44:48;;;;;;;;;;;;;;;;;;5076719;28;19912;-50
2022/04/03 15:47:13;;;;;;;;;;;;;;;;;;5076414;28;19920;-51
2022/04/03 15:49:38;;;;;;;;;;;;;;;;;;5076783;28;19979;-52
2022/04/03 15:52:04;;;;;;;;;;;;;;;;;;5076988;28;19982;-49
2022/04/03 15:54:29;;;;;;;;;;;;;;;;;;5076904;28;19919;-50
2022/04/03 15:56:54;;;;;;;;;;;;;;;;;;5077090;28;19909;-49
2022/04/03 15:59:21;;;;;;;;;;;;;;;;;;5064351;28;19921;-50
2022/04/03 16:01:46;;;;;;;;;;;;;;;;;;5056465;28;19917;-49
2022/04/03 16:04:11;;;;;;;;;;;;;;;;;;5056701;28;19955;-49
2022/04/03 16:06:36;;;;;;;;;;;;;;;;;;5055418;28;19939;-49
2022/04/03 16:09:02;;;;;;;;;;;;;;;;;;5056258;28;19909;-49
2022/04/03 16:11:27;;;;;;;;;;;;;;;;;;5056763;28;19948;-51
2022/04/03 16:13:52;;;;;;;;;;;;;;;;;;5056418;28;19963;-49
2022/04/03 16:16:17;;;;;;;;;;;;;;;;;;5056358;28;19916;-48
2022/04/03 16:18:43;;;;;;;;;;;;;;;;;;5056298;28;19913;-50
2022/04/03 16:21:08;;;;;;;;;;;;;;;;;;5056261;28;19909;-49
2022/04/03 16:23:33;;;;;;;;;;;;;;;;;;5056345;28;20265;-49
2022/04/03 16:25:59;;;;;;;;;;;;;;;;;;5056424;28;19915;-51
2022/04/03 16:28:24;;;;;;;;;;;;;;;;;;5056190;28;20000;-50
2022/04/03 16:30:49;;;;;;;;;;;;;;;;;;5056347;28;20019;-49
2022/04/03 16:33:14;;;;;;;;;;;;;;;;;;5056137;28;19909;-48
2022/04/03 16:35:39;;;;;;;;;;;;;;;;;;5056134;28;19915;-48